Time;durP1;ratioP1;P1;durP2;ratioP2;P2;SDS_P1;SDS_P2;PMS_P1;PMS_P2;Temp;Humidity;BMP_temperature;BMP_pressure;BME280_temperature;BME280_humidity;BME280_pressure;Samples;Min_cycle;Max_cycle;Signal;HPM_P1;HPM_P2
2022/09/28 00:01:24;;;;;;;1.43;1.00;;;19.70;99.90;;;;;;5125581;27;20357;-83
2022/09/28 00:03:53;;;;;;;1.03;0.93;;;19.70;99.90;;;;;;5143109;27;20377;-82
2022/09/28 00:06:26;;;;;;;1.63;1.00;;;19.60;99.90;;;;;;5126986;27;20411;-80
2022/09/28 00:08:53;;;;;;;1.13;1.02;;;19.90;99.90;;;;;;5134651;27;20381;-83
2022/09/28 00:11:23;;;;;;;3.00;1.00;;;20.10;99.90;;;;;;5137579;27;20438;-85
2022/09/28 00:13:52;;;;;;;1.30;0.90;;;20.30;99.90;;;;;;5137121;27;20380;-87
2022/09/28 00:16:22;;;;;;;2.97;1.10;;;20.00;99.90;;;;;;5136026;27;20373;-82
2022/09/28 00:18:50;;;;;;;2.45;1.30;;;19.70;99.90;;;;;;5136431;27;20376;-81
2022/09/28 00:21:21;;;;;;;1.50;1.00;;;19.40;99.90;;;;;;5141673;27;20361;-81
2022/09/28 00:26:36;;;;;;;1.25;0.90;;;19.30;99.90;;;;;;5122152;27;20371;-83
2022/09/28 00:29:03;;;;;;;1.52;0.90;;;19.60;99.90;;;;;;5137571;27;20413;-83
2022/09/28 00:31:33;;;;;;;1.98;1.00;;;19.80;99.90;;;;;;5135924;27;20405;-84
2022/09/28 00:34:01;;;;;;;1.48;0.70;;;20.20;99.90;;;;;;5138077;27;20646;-84
2022/09/28 00:36:48;;;;;;;0.80;0.80;;;20.50;99.90;;;;;;5138943;27;20404;-84
2022/09/28 00:39:16;;;;;;;0.90;0.80;;;20.50;99.90;;;;;;5105256;28;20741;-84
2022/09/28 00:41:44;;;;;;;0.70;0.70;;;20.50;99.70;;;;;;5109161;28;20846;-85
2022/09/28 00:44:29;;;;;;;0.70;0.70;;;20.40;99.90;;;;;;5115838;28;20381;-84
2022/09/28 00:46:58;;;;;;;0.65;0.60;;;20.60;99.90;;;;;;5113955;28;20753;-84
2022/09/28 00:49:39;;;;;;;0.90;0.60;;;20.80;99.90;;;;;;5095517;28;20371;-83
2022/09/28 00:52:08;;;;;;;1.23;0.70;;;21.00;97.30;;;;;;5089402;28;20451;-84
2022/09/28 00:54:35;;;;;;;1.30;0.57;;;21.20;97.90;;;;;;5109088;28;20461;-84
2022/09/28 00:57:03;;;;;;;1.17;0.60;;;20.90;96.90;;;;;;5108162;28;20402;-85
2022/09/28 00:59:32;;;;;;;0.60;0.60;;;20.80;95.20;;;;;;5108109;28;20395;-84
2022/09/28 01:02:00;;;;;;;0.90;0.77;;;20.70;94.80;;;;;;5109017;28;20382;-84
2022/09/28 01:04:27;;;;;;;0.60;0.60;;;20.70;95.80;;;;;;5102787;28;20478;-85
2022/09/28 01:06:56;;;;;;;1.52;0.70;;;20.90;96.40;;;;;;5099156;28;20769;-84
2022/09/28 01:09:26;;;;;;;3.15;0.80;;;21.50;97.10;;;;;;5106169;28;20418;-85
2022/09/28 01:11:54;;;;;;;1.23;0.80;;;22.10;95.80;;;;;;5103686;28;20501;-83
2022/09/28 01:14:24;;;;;;;2.83;0.80;;;22.50;93.40;;;;;;5093951;28;20416;-85
2022/09/28 01:17:09;;;;;;;1.03;0.77;;;22.80;91.60;;;;;;5098787;28;20400;-84
2022/09/28 01:19:57;;;;;;;0.85;0.60;;;22.80;88.60;;;;;;5106267;28;20800;-84
2022/09/28 01:22:27;;;;;;;0.65;0.65;;;22.20;91.00;;;;;;5108983;28;20389;-84
2022/09/28 01:25:33;;;;;;;4.10;0.93;;;22.00;90.50;;;;;;5130417;27;20460;-87
2022/09/28 01:28:05;;;;;;;3.88;1.00;;;22.20;90.70;;;;;;5042318;28;20403;-84
2022/09/28 01:30:47;;;;;;;2.35;1.00;;;22.00;89.20;;;;;;5051378;28;20387;-83
2022/09/28 01:33:23;;;;;;;4.72;1.30;;;21.80;90.80;;;;;;5051545;28;20391;-86
2022/09/28 01:36:02;;;;;;;3.00;0.80;;;22.00;91.10;;;;;;5052457;28;20414;-84
2022/09/28 01:38:38;;;;;;;2.43;0.77;;;22.80;89.30;;;;;;5051748;28;20411;-82
2022/09/28 01:41:06;;;;;;;1.30;0.73;;;23.10;84.10;;;;;;5052201;28;20383;-82
2022/09/28 01:43:38;;;;;;;1.30;0.70;;;23.30;87.50;;;;;;5052128;28;20775;-85
2022/09/28 01:46:10;;;;;;;2.17;0.80;;;24.50;82.40;;;;;;5052342;28;20378;-83
2022/09/28 01:48:58;;;;;;;4.93;1.00;;;25.50;75.90;;;;;;5052684;28;20411;-82
2022/09/28 01:51:33;;;;;;;5.07;1.00;;;24.80;73.90;;;;;;5051979;28;20387;-81
2022/09/28 01:54:19;;;;;;;1.42;0.70;;;23.70;76.20;;;;;;5035269;28;21034;-84
2022/09/28 01:56:58;;;;;;;0.65;0.57;;;22.70;79.60;;;;;;5051878;28;20410;-85
2022/09/28 01:59:32;;;;;;;5.63;0.80;;;22.70;81.20;;;;;;5051685;28;20492;-84
2022/09/28 02:02:24;;;;;;;3.60;0.75;;;23.90;80.50;;;;;;5052028;28;20814;-84
2022/09/28 02:05:04;;;;;;;4.35;0.80;;;25.00;73.70;;;;;;5083777;27;20380;-83
2022/09/28 02:07:54;;;;;;;4.22;0.90;;;25.20;70.00;;;;;;5105900;27;20420;-85
2022/09/28 02:10:30;;;;;;;0.95;0.60;;;24.20;72.30;;;;;;5137890;27;20429;-81
2022/09/28 02:13:00;;;;;;;3.40;0.80;;;23.60;72.20;;;;;;5137456;27;20361;-86
2022/09/28 02:15:53;;;;;;;1.50;0.60;;;23.60;72.90;;;;;;5141423;27;20462;-85
2022/09/28 02:18:40;;;;;;;4.60;0.80;;;24.80;70.70;;;;;;5091698;28;21482;-84
2022/09/28 02:21:26;;;;;;;0.82;0.50;;;26.10;65.00;;;;;;5102320;28;20376;-85
2022/09/28 02:24:02;;;;;;;2.80;0.63;;;27.10;60.20;;;;;;5097786;28;20377;-82
2022/09/28 02:26:51;;;;;;;2.20;0.70;;;27.40;57.40;;;;;;5099026;28;20380;-82
2022/09/28 02:29:18;;;;;;;1.30;0.60;;;27.90;55.80;;;;;;5083514;28;20380;-87
2022/09/28 02:31:46;;;;;;;1.00;0.43;;;28.00;54.30;;;;;;5099209;28;20395;-84
2022/09/28 02:34:18;;;;;;;0.60;0.47;;;28.00;53.10;;;;;;5098384;28;20365;-87
2022/09/28 02:36:46;;;;;;;1.58;0.60;;;28.60;52.90;;;;;;5100051;28;20887;-83
2022/09/28 02:39:16;;;;;;;1.40;0.40;;;29.00;52.80;;;;;;5085080;28;20384;-87
2022/09/28 02:42:28;;;;;;;0.98;0.47;;;29.20;51.60;;;;;;5097342;28;20993;-86
2022/09/28 02:45:29;;;;;;;0.50;0.50;;;28.70;49.80;;;;;;4991167;28;20534;-85
2022/09/28 02:48:15;;;;;;;0.60;0.50;;;27.10;51.60;;;;;;4997974;28;20404;-87
2022/09/28 02:50:55;;;;;;;0.40;0.40;;;27.40;52.10;;;;;;4997246;28;20454;-81
2022/09/28 02:53:46;;;;;;;1.02;0.40;;;28.50;49.90;;;;;;4998220;28;20796;-82
2022/09/28 02:56:54;;;;;;;0.77;0.40;;;28.50;49.40;;;;;;4997701;28;20388;-85
2022/09/28 02:59:45;;;;;;;0.40;0.40;;;28.00;50.80;;;;;;5030571;28;20466;-82
2022/09/28 03:02:20;;;;;;;0.40;0.40;;;26.60;52.10;;;;;;4997667;28;20389;-82
2022/09/28 03:04:56;;;;;;;1.25;0.50;;;26.40;54.90;;;;;;4995326;28;20436;-81
2022/09/28 03:07:28;;;;;;;5.03;0.90;;;27.80;53.90;;;;;;4997967;28;20884;-84
2022/09/28 03:10:00;;;;;;;0.90;0.50;;;28.90;51.80;;;;;;4991380;28;20402;-82
2022/09/28 03:12:29;;;;;;;0.50;0.50;;;29.00;50.40;;;;;;4989074;28;20385;-83
2022/09/28 03:15:28;;;;;;;2.05;0.65;;;27.70;51.20;;;;;;4992006;28;20805;-82
2022/09/28 03:17:56;;;;;;;2.85;0.60;;;26.30;52.60;;;;;;5005221;28;20402;-82
2022/09/28 03:20:24;;;;;;;2.30;0.50;;;25.00;54.40;;;;;;5074595;28;20367;-87
2022/09/28 03:22:51;;;;;;;1.00;0.40;;;24.30;57.70;;;;;;5055781;28;20374;-82
2022/09/28 03:25:18;;;;;;;0.40;0.40;;;24.40;55.40;;;;;;5066386;28;20380;-85
2022/09/28 03:27:46;;;;;;;0.50;0.50;;;24.10;56.70;;;;;;5060739;28;20383;-82
2022/09/28 03:30:14;;;;;;;1.55;0.55;;;23.70;56.80;;;;;;5074008;28;20378;-82
2022/09/28 03:32:41;;;;;;;3.33;0.70;;;23.30;58.40;;;;;;5082037;28;20861;-81
2022/09/28 03:35:09;;;;;;;1.90;0.70;;;23.00;59.10;;;;;;5070809;28;20398;-82
2022/09/28 03:37:37;;;;;;;3.30;0.70;;;22.70;59.40;;;;;;5061686;28;20387;-82
2022/09/28 03:40:05;;;;;;;1.13;0.60;;;22.40;58.40;;;;;;5110452;27;20409;-85
2022/09/28 03:42:36;;;;;;;0.60;0.60;;;22.10;59.80;;;;;;5117451;27;20377;-82
2022/09/28 03:45:04;;;;;;;0.43;0.43;;;22.00;60.80;;;;;;5132382;22;20499;-85
2022/09/28 03:47:31;;;;;;;0.60;0.50;;;21.90;61.10;;;;;;5075308;28;20457;-84
2022/09/28 03:49:58;;;;;;;1.40;0.40;;;21.70;60.70;;;;;;5075112;28;20465;-82
2022/09/28 03:52:25;;;;;;;2.20;0.52;;;21.50;61.00;;;;;;5054466;28;20382;-82
2022/09/28 03:54:52;;;;;;;2.05;0.52;;;21.50;61.80;;;;;;5074864;28;20378;-82
2022/09/28 03:57:20;;;;;;;1.50;0.43;;;21.50;64.70;;;;;;5074107;28;20409;-82
2022/09/28 03:59:47;;;;;;;1.88;0.70;;;21.40;63.50;;;;;;5071567;28;20375;-82
2022/09/28 04:02:14;;;;;;;1.45;0.60;;;21.40;65.00;;;;;;5073439;28;20382;-84
2022/09/28 04:04:41;;;;;;;1.27;0.70;;;21.60;62.80;;;;;;5058175;28;20366;-83
2022/09/28 04:07:08;;;;;;;0.90;0.60;;;21.70;63.70;;;;;;5072151;28;20427;-82
2022/09/28 04:09:35;;;;;;;1.30;0.60;;;21.80;62.70;;;;;;5071434;28;20381;-82
2022/09/28 04:12:02;;;;;;;1.00;0.60;;;21.80;62.20;;;;;;5071478;28;20389;-83
2022/09/28 04:14:29;;;;;;;0.60;0.50;;;21.80;61.10;;;;;;5071385;28;20385;-82
2022/09/28 04:16:58;;;;;;;1.15;0.50;;;21.70;60.60;;;;;;5071840;28;20394;-82
2022/09/28 04:19:26;;;;;;;0.55;0.45;;;21.60;61.10;;;;;;5061717;28;20807;-84
2022/09/28 04:21:53;;;;;;;0.40;0.40;;;21.60;60.90;;;;;;5075935;28;20373;-82
2022/09/28 04:24:21;;;;;;;0.40;0.40;;;21.50;61.90;;;;;;5077864;28;20396;-85
2022/09/28 04:26:50;;;;;;;0.60;0.43;;;21.40;62.00;;;;;;5072830;28;20369;-83
2022/09/28 04:29:17;;;;;;;0.40;0.40;;;21.40;62.20;;;;;;5077906;28;20427;-83
2022/09/28 04:31:52;;;;;;;0.40;0.40;;;21.40;62.80;;;;;;5080444;28;20377;-84
2022/09/28 04:34:23;;;;;;;0.47;0.47;;;21.50;61.70;;;;;;5064304;28;20464;-83
2022/09/28 04:36:50;;;;;;;0.60;0.40;;;21.70;60.80;;;;;;5078146;28;20423;-86
2022/09/28 04:39:18;;;;;;;0.43;0.43;;;21.80;60.50;;;;;;5060325;28;20389;-85
2022/09/28 04:41:48;;;;;;;1.40;0.40;;;22.30;58.80;;;;;;5074427;28;20370;-83
2022/09/28 04:44:15;;;;;;;0.60;0.40;;;23.70;55.80;;;;;;5080319;28;20400;-84
2022/09/28 04:46:42;;;;;;;0.45;0.40;;;25.10;52.00;;;;;;5082077;28;20410;-85
2022/09/28 04:49:10;;;;;;;2.10;0.70;;;25.10;51.20;;;;;;5071434;28;20381;-82
2022/09/28 04:51:37;;;;;;;3.10;1.20;;;24.50;59.00;;;;;;5071248;28;20862;-83
2022/09/28 04:54:04;;;;;;;2.60;1.40;;;23.70;68.10;;;;;;5072784;28;20371;-84
2022/09/28 04:56:31;;;;;;;4.20;1.40;;;23.30;72.30;;;;;;5072625;28;20385;-82
2022/09/28 04:58:58;;;;;;;5.40;1.55;;;23.10;75.40;;;;;;5075162;28;20792;-83
2022/09/28 05:01:26;;;;;;;4.05;1.30;;;23.30;76.40;;;;;;5071633;28;20462;-82
2022/09/28 05:03:53;;;;;;;3.50;1.30;;;23.10;77.80;;;;;;5075009;28;20409;-83
2022/09/28 05:06:21;;;;;;;5.38;1.40;;;22.60;81.00;;;;;;5073865;28;20378;-84
2022/09/28 05:08:52;;;;;;;5.53;1.67;;;22.10;84.50;;;;;;5073942;28;20915;-83
2022/09/28 05:11:20;;;;;;;5.50;1.55;;;21.70;90.10;;;;;;5073570;28;20380;-84
2022/09/28 05:13:49;;;;;;;4.72;1.48;;;21.50;91.90;;;;;;5073379;28;20385;-84
2022/09/28 05:16:16;;;;;;;4.40;1.60;;;21.30;93.40;;;;;;5072596;28;20381;-82
2022/09/28 05:18:44;;;;;;;5.20;1.50;;;21.20;94.50;;;;;;5070331;28;21331;-83
2022/09/28 05:21:13;;;;;;;5.95;1.50;;;21.30;95.10;;;;;;5070114;28;20366;-83
2022/09/28 05:23:44;;;;;;;7.60;1.63;;;21.30;95.90;;;;;;5070571;28;20378;-83
2022/09/28 05:26:12;;;;;;;6.55;1.90;;;21.50;96.30;;;;;;5070575;28;20374;-82
2022/09/28 05:28:39;;;;;;;4.68;1.65;;;21.50;96.50;;;;;;5071017;28;20382;-83
2022/09/28 05:31:06;;;;;;;5.78;1.50;;;21.40;96.70;;;;;;5080739;28;20382;-82
2022/09/28 05:33:33;;;;;;;4.17;1.40;;;21.30;97.30;;;;;;5071320;28;20409;-82
2022/09/28 05:36:01;;;;;;;5.63;1.70;;;21.10;97.70;;;;;;5071258;28;20381;-82
2022/09/28 05:38:29;;;;;;;9.10;2.03;;;20.80;98.10;;;;;;5070151;28;20402;-81
2022/09/28 05:40:56;;;;;;;5.18;1.55;;;20.60;98.90;;;;;;5071633;28;20452;-85
2022/09/28 05:43:24;;;;;;;5.38;1.50;;;20.50;99.70;;;;;;5074386;28;20378;-84
2022/09/28 05:45:51;;;;;;;3.88;1.50;;;20.30;99.90;;;;;;5075383;28;20398;-84
2022/09/28 05:48:18;;;;;;;4.68;1.60;;;20.30;99.90;;;;;;5077513;28;20820;-81
2022/09/28 05:50:53;;;;;;;3.67;1.40;;;20.50;99.90;;;;;;5068704;28;20417;-85
2022/09/28 05:53:20;;;;;;;4.65;1.70;;;20.60;99.90;;;;;;5069779;28;20378;-79
2022/09/28 05:55:48;;;;;;;3.95;1.60;;;20.80;99.90;;;;;;5070105;28;20370;-83
2022/09/28 05:58:15;;;;;;;4.05;1.45;;;20.90;99.90;;;;;;5069706;28;20405;-81
2022/09/28 06:00:43;;;;;;;3.97;1.42;;;20.90;99.90;;;;;;5072585;28;20460;-86
2022/09/28 06:03:14;;;;;;;4.57;1.50;;;21.00;99.70;;;;;;5073505;28;20393;-84
2022/09/28 06:05:42;;;;;;;5.55;1.48;;;21.20;99.00;;;;;;5070189;28;20386;-87
2022/09/28 06:08:10;;;;;;;3.67;1.40;;;21.50;98.90;;;;;;5068658;28;20418;-83
2022/09/28 06:10:38;;;;;;;4.97;1.40;;;21.40;98.80;;;;;;5068991;28;20382;-86
2022/09/28 06:13:06;;;;;;;4.77;1.37;;;21.00;99.10;;;;;;5069490;28;20421;-84
2022/09/28 06:15:35;;;;;;;6.32;1.75;;;20.80;99.50;;;;;;5068946;28;20461;-85
2022/09/28 06:18:04;;;;;;;4.53;1.70;;;20.60;99.90;;;;;;5073357;28;20868;-82
2022/09/28 06:20:36;;;;;;;5.63;1.97;;;20.30;99.90;;;;;;5072528;28;20389;-84
2022/09/28 06:23:03;;;;;;;7.28;1.90;;;20.10;99.90;;;;;;5055393;28;20797;-85
2022/09/28 06:25:31;;;;;;;6.97;1.75;;;19.90;99.90;;;;;;5072817;28;20384;-83
2022/09/28 06:28:00;;;;;;;6.03;1.70;;;19.70;99.90;;;;;;5073580;28;20544;-84
2022/09/28 06:30:31;;;;;;;6.80;2.00;;;19.50;99.90;;;;;;5073354;28;20378;-84
2022/09/28 06:33:00;;;;;;;7.47;1.83;;;19.50;99.90;;;;;;5072988;28;20378;-84
2022/09/28 06:35:29;;;;;;;6.87;1.87;;;19.30;99.90;;;;;;5072997;28;20382;-85
2022/09/28 06:37:57;;;;;;;6.10;1.70;;;19.20;99.90;;;;;;5072955;28;20885;-84
2022/09/28 06:40:25;;;;;;;8.50;2.30;;;18.70;99.90;;;;;;5058192;28;20386;-87
2022/09/28 06:43:01;;;;;;;10.48;2.13;;;19.10;99.90;;;;;;5072772;28;20393;-86
2022/09/28 06:45:29;;;;;;;5.47;2.17;;;18.90;99.90;;;;;;5070775;28;20421;-87
2022/09/28 06:48:00;;;;;;;5.88;1.75;;;18.90;99.90;;;;;;5075634;28;20411;-83
2022/09/28 06:50:31;;;;;;;7.95;1.90;;;18.80;99.90;;;;;;5072645;28;20424;-83
2022/09/28 06:52:59;;;;;;;10.13;2.22;;;18.80;99.90;;;;;;5073030;28;20398;-87
2022/09/28 06:55:27;;;;;;;7.13;2.00;;;18.70;99.90;;;;;;5073515;28;20985;-81
2022/09/28 06:58:03;;;;;;;7.53;1.77;;;18.80;99.90;;;;;;5071727;28;20409;-84
2022/09/28 07:00:33;;;;;;;7.65;1.95;;;18.70;99.90;;;;;;5073959;28;20734;-84
2022/09/28 07:03:08;;;;;;;8.93;2.03;;;18.50;99.90;;;;;;5084382;28;20447;-82
2022/09/28 07:05:40;;;;;;;10.02;1.90;;;18.20;99.90;;;;;;5095095;28;20386;-80
2022/09/28 07:08:07;;;;;;;6.88;1.98;;;18.00;99.90;;;;;;5066485;28;20389;-81
2022/09/28 07:10:34;;;;;;;5.85;1.75;;;17.80;99.90;;;;;;5072151;28;20394;-81
2022/09/28 07:13:05;;;;;;;6.47;1.90;;;17.70;99.90;;;;;;5071807;28;20405;-82
2022/09/28 07:15:33;;;;;;;5.50;1.60;;;17.60;99.90;;;;;;5066578;28;20467;-81
2022/09/28 07:18:05;;;;;;;5.97;1.60;;;17.50;99.90;;;;;;5072357;28;21199;-81
2022/09/28 07:20:34;;;;;;;4.25;1.45;;;17.40;99.90;;;;;;5074025;28;20413;-82
2022/09/28 07:23:04;;;;;;;3.72;1.23;;;17.30;99.90;;;;;;5056923;28;20378;-83
2022/09/28 07:25:36;;;;;;;2.47;1.10;;;17.30;99.90;;;;;;5072906;28;20438;-81
2022/09/28 07:28:04;;;;;;;2.38;1.10;;;17.30;99.90;;;;;;5073865;28;20761;-82
2022/09/28 07:30:34;;;;;;;2.55;1.10;;;17.10;99.90;;;;;;5075697;28;20389;-82
2022/09/28 07:33:03;;;;;;;3.15;1.08;;;17.00;99.90;;;;;;5074057;28;20382;-82
2022/09/28 07:35:33;;;;;;;2.88;1.02;;;16.80;99.90;;;;;;5074041;28;20439;-80
2022/09/28 07:38:02;;;;;;;4.80;1.30;;;16.60;99.90;;;;;;5081280;28;20451;-82
2022/09/28 07:43:19;;;;;;;2.97;1.30;;;15.90;99.90;;;;;;5085364;28;20393;-80
2022/09/28 07:45:53;;;;;;;4.60;1.20;;;15.70;99.90;;;;;;5090498;28;20452;-83
2022/09/28 07:48:22;;;;;;;1.75;1.25;;;15.40;99.90;;;;;;5091275;28;20386;-83
2022/09/28 07:50:55;;;;;;;3.45;1.30;;;15.10;99.90;;;;;;5088360;28;20409;-87
2022/09/28 07:53:24;;;;;;;3.65;1.70;;;14.90;99.90;;;;;;5084819;28;20382;-81
2022/09/28 07:55:53;;;;;;;3.97;1.90;;;14.90;99.90;;;;;;5075814;28;20370;-82
2022/09/28 07:58:20;;;;;;;4.45;1.90;;;15.00;99.90;;;;;;5073583;28;20402;-82
2022/09/28 08:00:49;;;;;;;4.68;2.10;;;15.00;99.90;;;;;;5072980;28;20382;-83
2022/09/28 08:03:17;;;;;;;4.10;1.95;;;15.20;99.90;;;;;;5085680;28;20382;-79
2022/09/28 08:05:45;;;;;;;4.57;1.90;;;15.40;99.90;;;;;;5058824;28;20838;-80
2022/09/28 08:08:13;;;;;;;5.68;2.20;;;15.40;99.90;;;;;;5073283;28;20396;-80
2022/09/28 08:10:43;;;;;;;5.03;2.00;;;15.30;99.90;;;;;;5072283;28;20382;-77
2022/09/28 08:13:10;;;;;;;5.03;3.00;;;15.30;99.90;;;;;;5060467;28;20384;-78
2022/09/28 08:15:37;;;;;;;5.70;2.13;;;15.40;99.90;;;;;;5072339;28;20392;-80
2022/09/28 08:18:05;;;;;;;6.75;3.03;;;15.40;99.90;;;;;;5071178;28;20878;-81
2022/09/28 08:23:19;;;;;;;6.22;3.90;;;15.40;99.90;;;;;;5069982;28;20409;-80
2022/09/28 08:25:52;;;;;;;6.47;2.85;;;15.20;99.90;;;;;;5071228;28;20393;-79
2022/09/28 08:28:21;;;;;;;6.03;2.20;;;15.30;99.90;;;;;;5065358;28;20374;-80
2022/09/28 08:30:49;;;;;;;5.43;2.50;;;15.30;99.90;;;;;;5071728;28;20872;-81
2022/09/28 08:33:20;;;;;;;6.40;2.60;;;15.30;99.90;;;;;;5071374;28;20393;-80
2022/09/28 08:35:47;;;;;;;7.07;3.15;;;15.30;99.90;;;;;;5069036;28;20382;-82
2022/09/28 08:38:14;;;;;;;7.38;3.00;;;15.30;99.90;;;;;;5057397;28;20415;-80
2022/09/28 08:41:10;;;;;;;7.53;2.60;;;15.30;99.90;;;;;;5065113;28;20447;-81
2022/09/28 08:43:55;;;;;;;7.57;2.50;;;15.30;99.90;;;;;;5069906;28;20499;-81
2022/09/28 08:46:25;;;;;;;8.57;2.60;;;15.30;99.90;;;;;;5069554;28;20516;-82
2022/09/28 08:49:03;;;;;;;7.22;2.60;;;15.30;99.90;;;;;;5069060;28;20524;-81
2022/09/28 08:51:41;;;;;;;6.82;2.85;;;15.30;99.90;;;;;;5052985;28;20738;-81
2022/09/28 08:54:32;;;;;;;7.28;2.50;;;15.30;99.90;;;;;;5070219;28;20390;-80
2022/09/28 08:57:06;;;;;;;5.47;2.55;;;15.30;99.90;;;;;;5070665;28;20887;-81
2022/09/28 08:59:53;;;;;;;6.85;3.40;;;15.20;99.90;;;;;;5077072;28;20385;-81
2022/09/28 09:02:34;;;;;;;9.32;3.40;;;14.90;99.90;;;;;;5074964;28;20371;-80
2022/09/28 09:05:12;;;;;;;6.30;3.70;;;14.70;99.90;;;;;;5071455;28;20373;-80
2022/09/28 09:08:07;;;;;;;6.88;3.90;;;14.60;99.90;;;;;;5071209;28;20462;-80
2022/09/28 09:10:43;;;;;;;7.25;3.90;;;14.60;99.90;;;;;;5071086;28;20412;-80
2022/09/28 09:13:38;;;;;;;7.67;3.97;;;14.60;99.90;;;;;;5059037;28;20403;-81
2022/09/28 09:17:04;;;;;;;8.73;3.97;;;14.60;99.90;;;;;;5062271;28;20377;-82
2022/09/28 09:19:46;;;;;;;7.32;3.42;;;14.60;99.90;;;;;;4978766;28;20441;-82
2022/09/28 09:22:20;;;;;;;10.50;3.83;;;14.50;99.90;;;;;;4980451;28;20390;-81
2022/09/28 09:24:54;;;;;;;12.20;3.70;;;14.60;99.90;;;;;;4976130;28;20461;-83
2022/09/28 09:27:42;;;;;;;10.88;3.35;;;14.50;99.90;;;;;;4978966;28;20408;-81
2022/09/28 09:30:14;;;;;;;8.53;3.50;;;14.50;99.90;;;;;;4991924;28;20392;-82
2022/09/28 09:33:23;;;;;;;8.82;3.38;;;14.60;99.90;;;;;;4992031;28;20947;-79
2022/09/28 09:36:11;;;;;;;9.67;3.93;;;14.50;99.90;;;;;;4971843;28;20578;-83
2022/09/28 09:39:09;;;;;;;8.63;4.30;;;14.50;99.90;;;;;;4970172;28;20504;-82
2022/09/28 09:41:56;;;;;;;9.52;4.20;;;14.60;99.90;;;;;;4969096;28;20389;-82
2022/09/28 09:44:32;;;;;;;9.00;4.00;;;14.60;99.90;;;;;;4970007;28;20528;-82
2022/09/28 09:47:13;;;;;;;10.25;3.75;;;14.60;99.90;;;;;;4969697;28;20439;-82
2022/09/28 09:49:50;;;;;;;8.52;3.95;;;14.60;99.90;;;;;;4969700;28;20935;-83
2022/09/28 09:52:30;;;;;;;9.37;3.97;;;14.60;99.90;;;;;;4974219;28;20391;-83
2022/09/28 09:55:12;;;;;;;9.20;3.70;;;14.70;99.90;;;;;;5005040;28;20405;-82
2022/09/28 09:57:53;;;;;;;9.50;3.88;;;14.60;99.90;;;;;;5011345;28;20418;-83
2022/09/28 10:00:21;;;;;;;7.38;3.55;;;14.60;99.90;;;;;;5012433;28;20387;-82
2022/09/28 10:02:49;;;;;;;5.75;2.63;;;14.50;99.90;;;;;;5012447;28;20398;-82
2022/09/28 10:05:27;;;;;;;3.78;2.17;;;14.50;99.90;;;;;;4995844;28;20402;-82
2022/09/28 10:08:09;;;;;;;6.75;2.20;;;14.50;99.90;;;;;;5007330;28;20962;-82
2022/09/28 10:11:16;;;;;;;4.05;1.85;;;14.50;99.90;;;;;;5052917;28;20382;-81
2022/09/28 10:13:43;;;;;;;5.05;1.90;;;14.50;99.90;;;;;;5046803;28;20387;-83
2022/09/28 10:16:10;;;;;;;4.20;1.80;;;14.50;99.90;;;;;;5035341;28;20395;-83
2022/09/28 10:18:39;;;;;;;3.72;2.05;;;14.50;99.90;;;;;;5041816;28;20519;-84
2022/09/28 10:21:06;;;;;;;5.25;2.30;;;14.50;99.90;;;;;;5043675;28;20381;-83
2022/09/28 10:23:37;;;;;;;4.10;2.40;;;14.50;99.90;;;;;;5052157;28;20486;-84
2022/09/28 10:26:12;;;;;;;4.53;2.20;;;14.40;99.90;;;;;;5047492;28;20428;-81
2022/09/28 10:29:16;;;;;;;4.13;2.17;;;14.40;99.90;;;;;;5031687;28;20388;-83
2022/09/28 10:31:50;;;;;;;4.65;2.15;;;14.40;99.90;;;;;;4987230;28;20403;-82
2022/09/28 10:34:24;;;;;;;3.45;2.20;;;14.40;99.90;;;;;;4982729;28;20480;-83
2022/09/28 10:36:57;;;;;;;2.88;1.80;;;14.40;99.90;;;;;;4991574;28;20396;-81
2022/09/28 10:39:26;;;;;;;4.45;1.90;;;14.30;99.90;;;;;;4990642;28;20423;-83
2022/09/28 10:41:54;;;;;;;3.00;1.80;;;14.30;99.90;;;;;;4990797;28;20442;-83
2022/09/28 10:44:22;;;;;;;4.65;1.80;;;14.20;99.90;;;;;;4992198;28;20869;-83
2022/09/28 10:47:04;;;;;;;3.10;1.60;;;14.10;99.90;;;;;;4992698;28;20436;-82
2022/09/28 10:49:45;;;;;;;2.72;1.30;;;14.00;99.90;;;;;;4982271;28;20409;-82
2022/09/28 10:52:33;;;;;;;1.40;1.30;;;14.00;99.90;;;;;;4981157;28;20401;-85
2022/09/28 10:55:01;;;;;;;1.77;1.27;;;13.90;99.90;;;;;;4983648;28;20468;-84
2022/09/28 10:57:34;;;;;;;2.28;1.08;;;13.80;99.90;;;;;;4989168;28;20495;-81
2022/09/28 11:00:02;;;;;;;1.58;1.15;;;13.80;99.90;;;;;;4995611;28;20400;-82
2022/09/28 11:02:39;;;;;;;1.20;1.10;;;13.70;99.90;;;;;;4980496;28;20394;-82
2022/09/28 11:05:18;;;;;;;1.30;1.10;;;13.70;99.90;;;;;;4984060;28;20467;-83
2022/09/28 11:07:47;;;;;;;1.52;1.02;;;13.70;99.90;;;;;;5039010;28;20837;-81
2022/09/28 11:10:24;;;;;;;1.52;1.00;;;13.70;99.90;;;;;;5072943;28;20950;-83
2022/09/28 11:12:53;;;;;;;2.25;1.10;;;13.60;99.90;;;;;;5054882;28;20385;-84
2022/09/28 11:15:24;;;;;;;1.13;1.03;;;13.60;99.90;;;;;;5072680;28;20378;-82
2022/09/28 11:17:51;;;;;;;2.45;1.00;;;13.50;99.90;;;;;;5072882;28;20402;-80
2022/09/28 11:20:29;;;;;;;2.00;1.05;;;13.50;99.90;;;;;;5063585;28;20389;-83
2022/09/28 11:23:21;;;;;;;2.00;1.15;;;13.50;99.90;;;;;;5072543;28;20460;-82
2022/09/28 11:26:04;;;;;;;1.00;0.90;;;13.50;99.90;;;;;;5072443;28;20386;-82
2022/09/28 11:28:36;;;;;;;2.40;1.00;;;13.50;99.90;;;;;;5072945;28;20393;-83
2022/09/28 11:31:06;;;;;;;0.90;0.90;;;13.50;99.90;;;;;;5072774;28;20385;-83
2022/09/28 11:33:40;;;;;;;2.00;1.00;;;13.40;99.90;;;;;;5071961;28;20406;-84
2022/09/28 11:36:21;;;;;;;0.80;0.75;;;13.40;99.90;;;;;;5069241;28;20378;-83
2022/09/28 11:39:16;;;;;;;2.65;0.90;;;13.40;99.90;;;;;;5062426;28;20410;-83
2022/09/28 11:42:14;;;;;;;0.70;0.70;;;13.40;99.90;;;;;;5071933;28;20370;-83
2022/09/28 11:45:18;;;;;;;1.50;0.70;;;13.40;99.90;;;;;;5067648;28;20473;-84
2022/09/28 11:47:59;;;;;;;1.63;0.90;;;13.50;99.90;;;;;;4979050;28;20490;-82
2022/09/28 11:50:26;;;;;;;0.98;0.80;;;13.50;99.90;;;;;;4991177;28;20475;-81
2022/09/28 11:53:14;;;;;;;1.60;0.70;;;13.60;99.90;;;;;;4995485;28;20406;-84
2022/09/28 11:55:43;;;;;;;1.15;0.70;;;13.60;99.90;;;;;;4990342;28;20479;-82
2022/09/28 11:58:39;;;;;;;1.25;0.80;;;13.70;99.90;;;;;;4990183;28;20412;-84
2022/09/28 12:01:20;;;;;;;1.02;0.70;;;13.60;99.90;;;;;;4989910;28;20519;-83
2022/09/28 12:04:22;;;;;;;1.53;0.80;;;13.60;99.90;;;;;;4990548;28;20453;-81
2022/09/28 12:06:58;;;;;;;0.90;0.70;;;13.60;99.90;;;;;;4955179;28;20404;-84
2022/09/28 12:09:40;;;;;;;0.70;0.60;;;13.60;99.90;;;;;;4945981;28;20491;-82
2022/09/28 12:12:38;;;;;;;0.95;0.70;;;13.50;99.90;;;;;;4956896;28;20376;-84
2022/09/28 12:15:12;;;;;;;1.25;0.70;;;13.50;99.90;;;;;;4887036;29;20937;-84
2022/09/28 12:17:47;;;;;;;2.40;0.90;;;13.50;99.90;;;;;;4894932;29;20468;-85
2022/09/28 12:20:48;;;;;;;1.10;0.70;;;13.50;99.90;;;;;;4895863;29;20692;-83
2022/09/28 12:23:32;;;;;;;2.00;0.80;;;13.50;99.90;;;;;;4857178;29;20448;-82
2022/09/28 12:26:04;;;;;;;1.98;0.82;;;13.40;99.90;;;;;;4894415;29;20397;-85
2022/09/28 12:28:31;;;;;;;0.80;0.80;;;13.40;99.90;;;;;;4894074;29;20433;-83
2022/09/28 12:31:08;;;;;;;1.60;0.88;;;13.50;99.90;;;;;;4886410;29;20411;-81
2022/09/28 12:33:38;;;;;;;0.98;0.75;;;13.40;99.90;;;;;;4892242;29;20409;-83
2022/09/28 12:36:25;;;;;;;0.88;0.70;;;13.50;99.90;;;;;;4889320;29;20437;-83
2022/09/28 12:38:58;;;;;;;1.23;0.70;;;13.40;99.90;;;;;;4887435;29;20425;-84
2022/09/28 12:41:50;;;;;;;0.95;0.80;;;13.50;99.90;;;;;;4894524;29;20402;-83
2022/09/28 12:44:39;;;;;;;0.90;0.80;;;13.40;99.90;;;;;;4891168;29;20439;-83
2022/09/28 12:47:22;;;;;;;0.70;0.70;;;13.40;99.90;;;;;;4900288;29;20465;-82
2022/09/28 12:50:18;;;;;;;0.90;0.70;;;13.40;99.90;;;;;;4902031;29;22382;-81
2022/09/28 12:53:18;;;;;;;1.20;0.82;;;13.30;99.90;;;;;;4977739;28;20905;-83
2022/09/28 12:56:09;;;;;;;3.13;1.05;;;13.30;99.90;;;;;;5003992;28;20514;-84
2022/09/28 12:58:41;;;;;;;0.90;0.70;;;13.20;99.90;;;;;;5009602;28;20453;-83
2022/09/28 13:01:29;;;;;;;1.42;0.80;;;13.20;99.90;;;;;;5067124;28;20493;-83
2022/09/28 13:04:32;;;;;;;1.52;0.88;;;13.20;99.90;;;;;;5068917;28;20432;-83
2022/09/28 13:06:59;;;;;;;1.00;0.90;;;13.20;99.90;;;;;;5023902;28;20386;-83
2022/09/28 13:09:30;;;;;;;1.75;0.90;;;13.20;99.90;;;;;;5023743;28;20812;-83
2022/09/28 13:12:33;;;;;;;1.10;0.80;;;13.20;99.90;;;;;;5019908;28;20386;-83
2022/09/28 13:15:10;;;;;;;2.78;0.90;;;13.30;99.90;;;;;;5022326;28;20386;-82
2022/09/28 13:17:54;;;;;;;1.73;0.90;;;13.20;99.90;;;;;;5022884;28;20485;-83
2022/09/28 13:20:50;;;;;;;1.13;0.90;;;13.20;99.90;;;;;;5026042;28;20393;-83
2022/09/28 13:23:29;;;;;;;1.83;0.70;;;13.20;99.90;;;;;;5027844;28;20397;-85
2022/09/28 13:26:22;;;;;;;1.38;0.90;;;13.30;99.90;;;;;;5028811;28;20431;-83
2022/09/28 13:28:53;;;;;;;1.02;0.80;;;13.30;99.90;;;;;;4970496;28;20438;-83
2022/09/28 13:31:30;;;;;;;1.08;0.90;;;13.30;99.90;;;;;;4970210;28;20398;-82
2022/09/28 13:34:02;;;;;;;2.00;0.98;;;13.30;99.90;;;;;;4972832;28;20910;-84